MSC Rhiannon — D5IY4 — position and weather

sailwx.info

Track history (hours):
 
Tides and Currents Weather Stations Pressure Air Temp Water Temp Dewpoint Dewpoint Depression Visibility Wind Speed Wind Dir Waves Ship Positions

MSC Rhiannon

Last reported at 2018-Jul-20 07:20 UTC. Time now 2018-Jul-20 23:26 UTC.
Position N 34°38' E 033°04'.

Length 188 m; draft 9.3 m.

Type: Ship (hazmat cat D). MMSI: 636017023.

Date/timePositionNaut miles runAvg speedWind from/ knotsBaromVisibWave heightAir tempDewpointWater temp
2018-Jul-20 07:20N 34°38' E 033°04'2 6.9
2018-Jul-20 07:00N 34°39' E 033°02'1 1.1
2018-Jul-20 06:30N 34°39' E 033°01'0 0.0
2018-Jul-20 06:00N 34°39' E 033°01'0 0.0
2018-Jul-20 05:30N 34°39' E 033°01'0 0.0
2018-Jul-20 05:00N 34°39' E 033°01'0 0.0
2018-Jul-20 04:27N 34°39' E 033°01'0 0.0
2018-Jul-20 03:57N 34°39' E 033°01'0 0.0
2018-Jul-20 03:30N 34°39' E 033°01'0 0.0
2018-Jul-20 03:00N 34°39' E 033°01'0 0.0
2018-Jul-20 02:30N 34°39' E 033°01'0 0.0
2018-Jul-20 02:00N 34°39' E 033°01'0 0.0
2018-Jul-20 01:30N 34°39' E 033°01'0 0.0
2018-Jul-20 01:00N 34°39' E 033°01'0 0.0
2018-Jul-20 00:30N 34°39' E 033°01'0 0.0
2018-Jul-20 00:00N 34°39' E 033°01'0 0.0
2018-Jul-19 23:30N 34°39' E 033°01'0 0.0
2018-Jul-19 23:00N 34°39' E 033°01'0 0.0
2018-Jul-19 22:30N 34°39' E 033°01'0 0.0
2018-Jul-19 22:00N 34°39' E 033°01'0 0.0
2018-Jul-19 21:30N 34°39' E 033°01'0 0.0
2018-Jul-19 21:00N 34°39' E 033°01'0 0.0
2018-Jul-19 20:30N 34°39' E 033°01'0 0.0
2018-Jul-19 19:57N 34°39' E 033°01'0 0.0
2018-Jul-19 19:27N 34°39' E 033°01'0 0.0
2018-Jul-19 19:00N 34°39' E 033°01'0 0.0
2018-Jul-19 18:28N 34°39' E 033°01'0 0.0
2018-Jul-19 17:58N 34°39' E 033°01'0 0.0
2018-Jul-19 17:29N 34°39' E 033°01'0 0.0
2018-Jul-19 16:59N 34°39' E 033°01'0 0.0
2018-Jul-19 16:29N 34°39' E 033°01'0 0.0
2018-Jul-19 15:59N 34°39' E 033°01'0 0.0
2018-Jul-19 15:29N 34°39' E 033°01'0 0.0
2018-Jul-19 14:59N 34°39' E 033°01'0 0.0
2018-Jul-19 13:59N 34°39' E 033°01'0 0.0
2018-Jul-19 13:29N 34°39' E 033°01'0 0.0
2018-Jul-19 12:59N 34°39' E 033°01'0 0.0
2018-Jul-19 12:29N 34°39' E 033°01'0 0.0
2018-Jul-19 11:56N 34°39' E 033°01'0 0.0
2018-Jul-19 11:29N 34°39' E 033°01'0 0.0
2018-Jul-19 10:53N 34°39' E 033°01'0 0.0
2018-Jul-19 10:29N 34°39' E 033°01'0 0.0
2018-Jul-19 09:59N 34°39' E 033°01'0 0.0
2018-Jul-19 09:29N 34°39' E 033°01'0 0.0
2018-Jul-19 08:59N 34°39' E 033°01'1 1.8
2018-Jul-19 08:31N 34°39' E 033°02'2 4.2
2018-Jul-19 08:01N 34°39' E 033°05'0 0.4
2018-Jul-19 07:28N 34°39' E 033°05'0 0.7
2018-Jul-19 07:01N 34°39' E 033°05'48114.9
2018-Jul-17 22:45N 37°28' E 023°48'416.8
2018-Jul-17 22:30N 37°32' E 023°47'816.9
2018-Jul-17 22:01N 37°39' E 023°42'816.8
2018-Jul-17 21:31N 37°47' E 023°38'815.4
2018-Jul-17 21:00N 37°55' E 023°37'3 5.3
2018-Jul-17 20:31N 37°57' E 023°36'0 0.3
2018-Jul-17 19:58N 37°57' E 023°36'0 0.0
2018-Jul-17 19:28N 37°57' E 023°36'0 0.0
2018-Jul-17 18:58N 37°57' E 023°36'0 0.0
2018-Jul-17 18:28N 37°57' E 023°36'0 0.0
2018-Jul-17 17:58N 37°57' E 023°36'0 0.1
2018-Jul-17 17:28N 37°57' E 023°36'0 0.1
2018-Jul-17 16:58N 37°57' E 023°36'0 0.0
2018-Jul-17 16:28N 37°57' E 023°36'0 0.0
2018-Jul-17 15:58N 37°57' E 023°36'0 0.0
2018-Jul-17 15:28N 37°57' E 023°36'0 0.0
2018-Jul-17 14:58N 37°57' E 023°36'0 0.0
2018-Jul-17 14:28N 37°57' E 023°36'0 0.0
2018-Jul-17 13:58N 37°57' E 023°36'0 0.0
2018-Jul-17 13:25N 37°57' E 023°36'0 0.0
2018-Jul-17 12:58N 37°57' E 023°36'0 0.0
2018-Jul-17 12:25N 37°57' E 023°36'0 0.0
2018-Jul-17 11:58N 37°57' E 023°36'0 0.0
2018-Jul-17 11:28N 37°57' E 023°36'0 0.0
2018-Jul-17 10:58N 37°57' E 023°36'0 0.0
2018-Jul-17 10:28N 37°57' E 023°36'0 0.0
2018-Jul-17 09:58N 37°57' E 023°36'0 0.0
2018-Jul-17 09:28N 37°57' E 023°36'0 0.0
2018-Jul-17 08:58N 37°57' E 023°36'0 0.0
2018-Jul-17 08:28N 37°57' E 023°36'0 0.1
2018-Jul-17 07:58N 37°57' E 023°36'0 0.0
2018-Jul-17 07:28N 37°57' E 023°36'0 0.0
2018-Jul-17 06:58N 37°57' E 023°36'0 0.0
2018-Jul-17 06:28N 37°57' E 023°36'0 0.0
2018-Jul-17 05:55N 37°57' E 023°36'0 0.0
2018-Jul-17 05:28N 37°57' E 023°36'0 0.0
2018-Jul-17 04:58N 37°57' E 023°36'0 0.0
2018-Jul-17 04:07N 37°57' E 023°36'0 0.0
2018-Jul-17 03:52N 37°57' E 023°36'0 0.0
2018-Jul-17 03:25N 37°57' E 023°36'0 0.0
2018-Jul-17 02:58N 37°57' E 023°36'0 0.0
2018-Jul-17 02:25N 37°57' E 023°36'0 0.0
2018-Jul-17 01:58N 37°57' E 023°36'0 0.0
2018-Jul-17 01:28N 37°57' E 023°36'0 0.0
2018-Jul-17 00:58N 37°57' E 023°36'0 0.0
2018-Jul-17 00:22N 37°57' E 023°36'0 0.0
2018-Jul-16 23:28N 37°57' E 023°36'0 0.0
2018-Jul-16 22:49N 37°57' E 023°36'0 0.0
2018-Jul-16 22:13N 37°57' E 023°36'0 0.0
2018-Jul-16 21:55N 37°57' E 023°36'0 0.0
2018-Jul-16 21:28N 37°57' E 023°36'0 0.0
2018-Jul-16 20:58N 37°57' E 023°36'0 0.0
2018-Jul-16 20:28N 37°57' E 023°36'0 0.0
2018-Jul-16 19:58N 37°57' E 023°36'0 0.0
2018-Jul-16 19:28N 37°57' E 023°36'0 0.0
2018-Jul-16 18:58N 37°57' E 023°36'0 0.0
2018-Jul-16 18:28N 37°57' E 023°36'2 4.8
2018-Jul-16 18:00N 37°55' E 023°37'5 9.6
2018-Jul-16 17:31N 37°51' E 023°39'611.1
2018-Jul-16 17:00N 37°46' E 023°42'815.6
2018-Jul-16 16:30N 37°39' E 023°47'815.4
2018-Jul-16 16:00N 37°31' E 023°49'815.8
2018-Jul-16 15:30N 37°24' E 023°49'815.9
2018-Jul-16 15:00N 37°16' E 023°50'815.8
2018-Jul-16 14:30N 37°08' E 023°48'815.5
2018-Jul-16 14:00N 37°01' E 023°43'815.5
2018-Jul-16 13:30N 36°54' E 023°38'815.8
2018-Jul-16 13:00N 36°47' E 023°33'1016.2
2018-Jul-16 12:23N 36°39' E 023°27'1615.8
2018-Jul-16 11:22N 36°25' E 023°17'615.3
2018-Jul-16 11:00N 36°22' E 023°11'59215.9
2018-Jul-14 21:39N 43°31' E 014°19'217.3
2018-Jul-14 21:30N 43°32' E 014°16'1017.1
2018-Jul-14 20:55N 43°36' E 014°03'717.0
2018-Jul-14 20:30N 43°39' E 013°54'1116.3
2018-Jul-14 19:49N 43°40' E 013°39'514.9
2018-Jul-14 19:30N 43°39' E 013°32'16 1.0
2018-Jul-14 04:31N 43°47' E 013°51'014.9
2018-Jul-14 04:30N 43°47' E 013°51'814.2
2018-Jul-14 03:57N 43°52' E 013°59'817.2
2018-Jul-14 03:30N 43°59' E 014°03'816.3
2018-Jul-14 03:00N 44°07' E 014°02'2017.6
2018-Jul-14 01:52N 44°24' E 013°45'617.6
2018-Jul-14 01:30N 44°29' E 013°41'917.9
2018-Jul-14 01:00N 44°37' E 013°34'917.6
2018-Jul-14 00:30N 44°44' E 013°27'917.7
2018-Jul-14 00:00N 44°51' E 013°20'917.5
2018-Jul-13 23:30N 44°58' E 013°13'917.3
2018-Jul-13 23:00N 45°06' E 013°07'917.1
2018-Jul-13 22:30N 45°14' E 013°03'817.1
2018-Jul-13 22:00N 45°22' E 013°01'816.5
2018-Jul-13 21:30N 45°29' E 013°08'917.3
2018-Jul-13 21:00N 45°34' E 013°18'815.8
2018-Jul-13 20:30N 45°37' E 013°29'815.1
2018-Jul-13 20:00N 45°39' E 013°39'5 9.2
2018-Jul-13 19:31N 45°38' E 013°45'0 0.6
2018-Jul-13 19:01N 45°38' E 013°46'0 0.0
2018-Jul-13 18:29N 45°38' E 013°46'0 0.0
2018-Jul-13 17:59N 45°38' E 013°46'0 0.0
2018-Jul-13 17:26N 45°38' E 013°46'0 0.0
2018-Jul-13 16:59N 45°38' E 013°46'0 0.0
2018-Jul-13 16:29N 45°38' E 013°46'0 0.0
2018-Jul-13 15:59N 45°38' E 013°46'0 0.0
2018-Jul-13 15:29N 45°38' E 013°46'0 0.0
2018-Jul-13 14:53N 45°38' E 013°46'0 0.0
2018-Jul-13 13:56N 45°38' E 013°46'0 0.0
2018-Jul-13 13:26N 45°38' E 013°46'0 0.0
2018-Jul-13 12:56N 45°38' E 013°46'0 0.0
2018-Jul-13 12:29N 45°38' E 013°46'0 0.0
2018-Jul-13 11:59N 45°38' E 013°46'0 0.0
2018-Jul-13 11:26N 45°38' E 013°46'0 0.0
2018-Jul-13 10:47N 45°38' E 013°46'0 0.0
2018-Jul-13 10:29N 45°38' E 013°46'0 0.0
2018-Jul-13 09:59N 45°38' E 013°46'0 0.0
2018-Jul-13 09:29N 45°38' E 013°46'0 0.0
2018-Jul-13 08:59N 45°38' E 013°46'0 0.0
2018-Jul-13 08:29N 45°38' E 013°46'0 0.0
2018-Jul-13 07:56N 45°38' E 013°46'0 0.0
2018-Jul-13 07:29N 45°38' E 013°46'0 0.0
2018-Jul-13 06:59N 45°38' E 013°46'0 0.0
2018-Jul-13 06:23N 45°38' E 013°46'0 0.0
2018-Jul-13 05:59N 45°38' E 013°46'0 0.0
2018-Jul-13 05:29N 45°38' E 013°46'0 0.0
2018-Jul-13 04:56N 45°38' E 013°46'0 0.4
2018-Jul-13 04:30N 45°38' E 013°45'3 5.9
2018-Jul-13 04:00N 45°39' E 013°41'2 3.3
2018-Jul-13 03:30N 45°38' E 013°39'3 5.8
2018-Jul-13 03:00N 45°36' E 013°36'3 6.3
2018-Jul-13 02:30N 45°35' E 013°32'4 8.0
2018-Jul-13 02:00N 45°33' E 013°27'5 9.3
2018-Jul-13 01:30N 45°30' E 013°22'4 8.3
2018-Jul-13 01:00N 45°28' E 013°17'5 9.7
2018-Jul-13 00:30N 45°24' E 013°12'4 8.3
2018-Jul-13 00:00N 45°20' E 013°11'5 9.6
2018-Jul-12 23:30N 45°16' E 013°12'5 9.7
2018-Jul-12 22:57N 45°10' E 013°14'5 9.9
2018-Jul-12 22:30N 45°06' E 013°12'713.6
2018-Jul-12 22:00N 45°01' E 013°05'713.7
2018-Jul-12 21:30N 44°56' E 012°58'713.7
2018-Jul-12 21:00N 44°51' E 012°52'713.1
2018-Jul-12 20:30N 44°46' E 012°47'713.6
2018-Jul-12 20:00N 44°39' E 012°45'713.8
2018-Jul-12 19:31N 44°32' E 012°43'1012.0
2018-Jul-12 18:38N 44°29' E 012°29'6 0.5
2018-Jul-12 06:54N 44°30' E 012°21'2 4.8
2018-Jul-12 06:24N 44°30' E 012°25'21 3.1
2018-Jul-11 23:33N 44°44' E 012°47'0 7.7
2018-Jul-11 23:30N 44°44' E 012°47'4 7.8
2018-Jul-11 23:00N 44°48' E 012°49'5 9.6
2018-Jul-11 22:30N 44°52' E 012°52'5 9.9
2018-Jul-11 22:00N 44°57' E 012°49'510.0
2018-Jul-11 21:30N 45°01' E 012°46'510.3
2018-Jul-11 21:00N 45°06' E 012°42'5 9.7
2018-Jul-11 20:30N 45°09' E 012°37'5 9.6
2018-Jul-11 20:00N 45°11' E 012°31'5 9.4
2018-Jul-11 19:30N 45°16' E 012°28'510.6
2018-Jul-11 19:00N 45°19' E 012°23'510.3
2018-Jul-11 18:30N 45°21' E 012°16'4 8.3
2018-Jul-11 18:00N 45°25' E 012°16'2 2.0
2018-Jul-11 16:48N 45°27' E 012°15'0 0.0
2018-Jul-11 08:09N 45°27' E 012°15'0 0.0
2018-Jul-11 07:24N 45°27' E 012°15'0 0.0
2018-Jul-11 07:00N 45°27' E 012°15'0 0.0
2018-Jul-11 06:06N 45°27' E 012°15'0 0.1
2018-Jul-11 06:00N 45°27' E 012°15'0 0.0
2018-Jul-11 05:27N 45°27' E 012°15'0 0.0
2018-Jul-11 04:57N 45°27' E 012°15'0 0.0
2018-Jul-11 04:30N 45°27' E 012°15'0 0.0
2018-Jul-11 03:57N 45°27' E 012°15'0 0.0
2018-Jul-11 03:21N 45°27' E 012°15'0 0.0
2018-Jul-11 02:48N 45°27' E 012°15'0 0.0
2018-Jul-11 02:30N 45°27' E 012°15'0 0.0
2018-Jul-11 01:48N 45°27' E 012°15'0 0.0
2018-Jul-11 01:24N 45°27' E 012°15'0 0.0
2018-Jul-11 01:00N 45°27' E 012°15'0 0.0
2018-Jul-11 00:24N 45°27' E 012°15'0 0.0
2018-Jul-10 23:57N 45°27' E 012°15'0 0.0
2018-Jul-10 22:18N 45°27' E 012°15'0 0.0
2018-Jul-10 19:57N 45°27' E 012°15'0 0.0
2018-Jul-10 17:12N 45°27' E 012°15'0 0.0
2018-Jul-10 16:36N 45°27' E 012°15'0 0.1
2018-Jul-10 16:30N 45°27' E 012°15'0 0.0
2018-Jul-10 15:51N 45°27' E 012°15'0 0.0
2018-Jul-10 15:30N 45°27' E 012°15'0 0.0
2018-Jul-10 14:15N 45°27' E 012°15'0 0.0
2018-Jul-10 13:45N 45°27' E 012°15'0 0.0
2018-Jul-10 13:30N 45°27' E 012°15'0 0.0
2018-Jul-10 10:00N 45°27' E 012°15'0 0.0
2018-Jul-10 09:15N 45°27' E 012°15'0 0.0
2018-Jul-10 08:54N 45°27' E 012°15'0 0.0
2018-Jul-10 08:24N 45°27' E 012°15'0 0.0
2018-Jul-10 08:00N 45°27' E 012°15'0 0.0
2018-Jul-10 07:30N 45°27' E 012°15'  
Track history (hours):
 
Tides and Currents Weather Stations Pressure Air Temp Water Temp Dewpoint Dewpoint Depression Visibility Wind Speed Wind Dir Waves Ship Positions

MSC Rhiannon

Last reported at 2018-Jul-20 07:20 UTC. Time now 2018-Jul-20 23:26 UTC.
Position N 34°38' E 033°04'.

Length 188 m; draft 9.3 m.

Type: Ship (hazmat cat D). MMSI: 636017023.

Date/timePositionNaut miles runAvg speedWind from/ knotsBaromVisibWave heightAir tempDewpointWater temp
2018-Jul-20 07:20N 34°38' E 033°04'2 6.9
2018-Jul-20 07:00N 34°39' E 033°02'1 1.1
2018-Jul-20 06:30N 34°39' E 033°01'0 0.0
2018-Jul-20 06:00N 34°39' E 033°01'0 0.0
2018-Jul-20 05:30N 34°39' E 033°01'0 0.0
2018-Jul-20 05:00N 34°39' E 033°01'0 0.0
2018-Jul-20 04:27N 34°39' E 033°01'0 0.0
2018-Jul-20 03:57N 34°39' E 033°01'0 0.0
2018-Jul-20 03:30N 34°39' E 033°01'0 0.0
2018-Jul-20 03:00N 34°39' E 033°01'0 0.0
2018-Jul-20 02:30N 34°39' E 033°01'0 0.0
2018-Jul-20 02:00N 34°39' E 033°01'0 0.0
2018-Jul-20 01:30N 34°39' E 033°01'0 0.0
2018-Jul-20 01:00N 34°39' E 033°01'0 0.0
2018-Jul-20 00:30N 34°39' E 033°01'0 0.0
2018-Jul-20 00:00N 34°39' E 033°01'0 0.0
2018-Jul-19 23:30N 34°39' E 033°01'0 0.0
2018-Jul-19 23:00N 34°39' E 033°01'0 0.0
2018-Jul-19 22:30N 34°39' E 033°01'0 0.0
2018-Jul-19 22:00N 34°39' E 033°01'0 0.0
2018-Jul-19 21:30N 34°39' E 033°01'0 0.0
2018-Jul-19 21:00N 34°39' E 033°01'0 0.0
2018-Jul-19 20:30N 34°39' E 033°01'0 0.0
2018-Jul-19 19:57N 34°39' E 033°01'0 0.0
2018-Jul-19 19:27N 34°39' E 033°01'0 0.0
2018-Jul-19 19:00N 34°39' E 033°01'0 0.0
2018-Jul-19 18:28N 34°39' E 033°01'0 0.0
2018-Jul-19 17:58N 34°39' E 033°01'0 0.0
2018-Jul-19 17:29N 34°39' E 033°01'0 0.0
2018-Jul-19 16:59N 34°39' E 033°01'0 0.0
2018-Jul-19 16:29N 34°39' E 033°01'0 0.0
2018-Jul-19 15:59N 34°39' E 033°01'0 0.0
2018-Jul-19 15:29N 34°39' E 033°01'0 0.0
2018-Jul-19 14:59N 34°39' E 033°01'0 0.0
2018-Jul-19 13:59N 34°39' E 033°01'0 0.0
2018-Jul-19 13:29N 34°39' E 033°01'0 0.0
2018-Jul-19 12:59N 34°39' E 033°01'0 0.0
2018-Jul-19 12:29N 34°39' E 033°01'0 0.0
2018-Jul-19 11:56N 34°39' E 033°01'0 0.0
2018-Jul-19 11:29N 34°39' E 033°01'0 0.0
2018-Jul-19 10:53N 34°39' E 033°01'0 0.0
2018-Jul-19 10:29N 34°39' E 033°01'0 0.0
2018-Jul-19 09:59N 34°39' E 033°01'0 0.0
2018-Jul-19 09:29N 34°39' E 033°01'0 0.0
2018-Jul-19 08:59N 34°39' E 033°01'1 1.8
2018-Jul-19 08:31N 34°39' E 033°02'2 4.2
2018-Jul-19 08:01N 34°39' E 033°05'0 0.4
2018-Jul-19 07:28N 34°39' E 033°05'0 0.7
2018-Jul-19 07:01N 34°39' E 033°05'48114.9
2018-Jul-17 22:45N 37°28' E 023°48'416.8
2018-Jul-17 22:30N 37°32' E 023°47'816.9
2018-Jul-17 22:01N 37°39' E 023°42'816.8
2018-Jul-17 21:31N 37°47' E 023°38'815.4
2018-Jul-17 21:00N 37°55' E 023°37'3 5.3
2018-Jul-17 20:31N 37°57' E 023°36'0 0.3
2018-Jul-17 19:58N 37°57' E 023°36'0 0.0
2018-Jul-17 19:28N 37°57' E 023°36'0 0.0
2018-Jul-17 18:58N 37°57' E 023°36'0 0.0
2018-Jul-17 18:28N 37°57' E 023°36'0 0.0
2018-Jul-17 17:58N 37°57' E 023°36'0 0.1
2018-Jul-17 17:28N 37°57' E 023°36'0 0.1
2018-Jul-17 16:58N 37°57' E 023°36'0 0.0
2018-Jul-17 16:28N 37°57' E 023°36'0 0.0
2018-Jul-17 15:58N 37°57' E 023°36'0 0.0
2018-Jul-17 15:28N 37°57' E 023°36'0 0.0
2018-Jul-17 14:58N 37°57' E 023°36'0 0.0
2018-Jul-17 14:28N 37°57' E 023°36'0 0.0
2018-Jul-17 13:58N 37°57' E 023°36'0 0.0
2018-Jul-17 13:25N 37°57' E 023°36'0 0.0
2018-Jul-17 12:58N 37°57' E 023°36'0 0.0
2018-Jul-17 12:25N 37°57' E 023°36'0 0.0
2018-Jul-17 11:58N 37°57' E 023°36'0 0.0
2018-Jul-17 11:28N 37°57' E 023°36'0 0.0
2018-Jul-17 10:58N 37°57' E 023°36'0 0.0
2018-Jul-17 10:28N 37°57' E 023°36'0 0.0
2018-Jul-17 09:58N 37°57' E 023°36'0 0.0
2018-Jul-17 09:28N 37°57' E 023°36'0 0.0
2018-Jul-17 08:58N 37°57' E 023°36'0 0.0
2018-Jul-17 08:28N 37°57' E 023°36'0 0.1
2018-Jul-17 07:58N 37°57' E 023°36'0 0.0
2018-Jul-17 07:28N 37°57' E 023°36'0 0.0
2018-Jul-17 06:58N 37°57' E 023°36'0 0.0
2018-Jul-17 06:28N 37°57' E 023°36'0 0.0
2018-Jul-17 05:55N 37°57' E 023°36'0 0.0
2018-Jul-17 05:28N 37°57' E 023°36'0 0.0
2018-Jul-17 04:58N 37°57' E 023°36'0 0.0
2018-Jul-17 04:07N 37°57' E 023°36'0 0.0
2018-Jul-17 03:52N 37°57' E 023°36'0 0.0
2018-Jul-17 03:25N 37°57' E 023°36'0 0.0
2018-Jul-17 02:58N 37°57' E 023°36'0 0.0
2018-Jul-17 02:25N 37°57' E 023°36'0 0.0
2018-Jul-17 01:58N 37°57' E 023°36'0 0.0
2018-Jul-17 01:28N 37°57' E 023°36'0 0.0
2018-Jul-17 00:58N 37°57' E 023°36'0 0.0
2018-Jul-17 00:22N 37°57' E 023°36'0 0.0
2018-Jul-16 23:28N 37°57' E 023°36'0 0.0
2018-Jul-16 22:49N 37°57' E 023°36'0 0.0
2018-Jul-16 22:13N 37°57' E 023°36'0 0.0
2018-Jul-16 21:55N 37°57' E 023°36'0 0.0
2018-Jul-16 21:28N 37°57' E 023°36'0 0.0
2018-Jul-16 20:58N 37°57' E 023°36'0 0.0
2018-Jul-16 20:28N 37°57' E 023°36'0 0.0
2018-Jul-16 19:58N 37°57' E 023°36'0 0.0
2018-Jul-16 19:28N 37°57' E 023°36'0 0.0
2018-Jul-16 18:58N 37°57' E 023°36'0 0.0
2018-Jul-16 18:28N 37°57' E 023°36'2 4.8
2018-Jul-16 18:00N 37°55' E 023°37'5 9.6
2018-Jul-16 17:31N 37°51' E 023°39'611.1
2018-Jul-16 17:00N 37°46' E 023°42'815.6
2018-Jul-16 16:30N 37°39' E 023°47'815.4
2018-Jul-16 16:00N 37°31' E 023°49'815.8
2018-Jul-16 15:30N 37°24' E 023°49'815.9
2018-Jul-16 15:00N 37°16' E 023°50'815.8
2018-Jul-16 14:30N 37°08' E 023°48'815.5
2018-Jul-16 14:00N 37°01' E 023°43'815.5
2018-Jul-16 13:30N 36°54' E 023°38'815.8
2018-Jul-16 13:00N 36°47' E 023°33'1016.2
2018-Jul-16 12:23N 36°39' E 023°27'1615.8
2018-Jul-16 11:22N 36°25' E 023°17'615.3
2018-Jul-16 11:00N 36°22' E 023°11'59215.9
2018-Jul-14 21:39N 43°31' E 014°19'217.3
2018-Jul-14 21:30N 43°32' E 014°16'1017.1
2018-Jul-14 20:55N 43°36' E 014°03'717.0
2018-Jul-14 20:30N 43°39' E 013°54'1116.3
2018-Jul-14 19:49N 43°40' E 013°39'514.9
2018-Jul-14 19:30N 43°39' E 013°32'16 1.0
2018-Jul-14 04:31N 43°47' E 013°51'014.9
2018-Jul-14 04:30N 43°47' E 013°51'814.2
2018-Jul-14 03:57N 43°52' E 013°59'817.2
2018-Jul-14 03:30N 43°59' E 014°03'816.3
2018-Jul-14 03:00N 44°07' E 014°02'2017.6
2018-Jul-14 01:52N 44°24' E 013°45'617.6
2018-Jul-14 01:30N 44°29' E 013°41'917.9
2018-Jul-14 01:00N 44°37' E 013°34'917.6
2018-Jul-14 00:30N 44°44' E 013°27'917.7
2018-Jul-14 00:00N 44°51' E 013°20'917.5
2018-Jul-13 23:30N 44°58' E 013°13'917.3
2018-Jul-13 23:00N 45°06' E 013°07'917.1
2018-Jul-13 22:30N 45°14' E 013°03'817.1
2018-Jul-13 22:00N 45°22' E 013°01'816.5
2018-Jul-13 21:30N 45°29' E 013°08'917.3
2018-Jul-13 21:00N 45°34' E 013°18'815.8
2018-Jul-13 20:30N 45°37' E 013°29'815.1
2018-Jul-13 20:00N 45°39' E 013°39'5 9.2
2018-Jul-13 19:31N 45°38' E 013°45'0 0.6
2018-Jul-13 19:01N 45°38' E 013°46'0 0.0
2018-Jul-13 18:29N 45°38' E 013°46'0 0.0
2018-Jul-13 17:59N 45°38' E 013°46'0 0.0
2018-Jul-13 17:26N 45°38' E 013°46'0 0.0
2018-Jul-13 16:59N 45°38' E 013°46'0 0.0
2018-Jul-13 16:29N 45°38' E 013°46'0 0.0
2018-Jul-13 15:59N 45°38' E 013°46'0 0.0
2018-Jul-13 15:29N 45°38' E 013°46'0 0.0
2018-Jul-13 14:53N 45°38' E 013°46'0 0.0
2018-Jul-13 13:56N 45°38' E 013°46'0 0.0
2018-Jul-13 13:26N 45°38' E 013°46'0 0.0
2018-Jul-13 12:56N 45°38' E 013°46'0 0.0
2018-Jul-13 12:29N 45°38' E 013°46'0 0.0
2018-Jul-13 11:59N 45°38' E 013°46'0 0.0
2018-Jul-13 11:26N 45°38' E 013°46'0 0.0
2018-Jul-13 10:47N 45°38' E 013°46'0 0.0
2018-Jul-13 10:29N 45°38' E 013°46'0 0.0
2018-Jul-13 09:59N 45°38' E 013°46'0 0.0
2018-Jul-13 09:29N 45°38' E 013°46'0 0.0
2018-Jul-13 08:59N 45°38' E 013°46'0 0.0
2018-Jul-13 08:29N 45°38' E 013°46'0 0.0
2018-Jul-13 07:56N 45°38' E 013°46'0 0.0
2018-Jul-13 07:29N 45°38' E 013°46'0 0.0
2018-Jul-13 06:59N 45°38' E 013°46'0 0.0
2018-Jul-13 06:23N 45°38' E 013°46'0 0.0
2018-Jul-13 05:59N 45°38' E 013°46'0 0.0
2018-Jul-13 05:29N 45°38' E 013°46'0 0.0
2018-Jul-13 04:56N 45°38' E 013°46'0 0.4
2018-Jul-13 04:30N 45°38' E 013°45'3 5.9
2018-Jul-13 04:00N 45°39' E 013°41'2 3.3
2018-Jul-13 03:30N 45°38' E 013°39'3 5.8
2018-Jul-13 03:00N 45°36' E 013°36'3 6.3
2018-Jul-13 02:30N 45°35' E 013°32'4 8.0
2018-Jul-13 02:00N 45°33' E 013°27'5 9.3
2018-Jul-13 01:30N 45°30' E 013°22'4 8.3
2018-Jul-13 01:00N 45°28' E 013°17'5 9.7
2018-Jul-13 00:30N 45°24' E 013°12'4 8.3
2018-Jul-13 00:00N 45°20' E 013°11'5 9.6
2018-Jul-12 23:30N 45°16' E 013°12'5 9.7
2018-Jul-12 22:57N 45°10' E 013°14'5 9.9
2018-Jul-12 22:30N 45°06' E 013°12'713.6
2018-Jul-12 22:00N 45°01' E 013°05'713.7
2018-Jul-12 21:30N 44°56' E 012°58'713.7
2018-Jul-12 21:00N 44°51' E 012°52'713.1
2018-Jul-12 20:30N 44°46' E 012°47'713.6
2018-Jul-12 20:00N 44°39' E 012°45'713.8
2018-Jul-12 19:31N 44°32' E 012°43'1012.0
2018-Jul-12 18:38N 44°29' E 012°29'6 0.5
2018-Jul-12 06:54N 44°30' E 012°21'2 4.8
2018-Jul-12 06:24N 44°30' E 012°25'21 3.1
2018-Jul-11 23:33N 44°44' E 012°47'0 7.7
2018-Jul-11 23:30N 44°44' E 012°47'4 7.8
2018-Jul-11 23:00N 44°48' E 012°49'5 9.6
2018-Jul-11 22:30N 44°52' E 012°52'5 9.9
2018-Jul-11 22:00N 44°57' E 012°49'510.0
2018-Jul-11 21:30N 45°01' E 012°46'510.3
2018-Jul-11 21:00N 45°06' E 012°42'5 9.7
2018-Jul-11 20:30N 45°09' E 012°37'5 9.6
2018-Jul-11 20:00N 45°11' E 012°31'5 9.4
2018-Jul-11 19:30N 45°16' E 012°28'510.6
2018-Jul-11 19:00N 45°19' E 012°23'510.3
2018-Jul-11 18:30N 45°21' E 012°16'4 8.3
2018-Jul-11 18:00N 45°25' E 012°16'2 2.0
2018-Jul-11 16:48N 45°27' E 012°15'0 0.0
2018-Jul-11 08:09N 45°27' E 012°15'0 0.0
2018-Jul-11 07:24N 45°27' E 012°15'0 0.0
2018-Jul-11 07:00N 45°27' E 012°15'0 0.0
2018-Jul-11 06:06N 45°27' E 012°15'0 0.1
2018-Jul-11 06:00N 45°27' E 012°15'0 0.0
2018-Jul-11 05:27N 45°27' E 012°15'0 0.0
2018-Jul-11 04:57N 45°27' E 012°15'0 0.0
2018-Jul-11 04:30N 45°27' E 012°15'0 0.0
2018-Jul-11 03:57N 45°27' E 012°15'0 0.0
2018-Jul-11 03:21N 45°27' E 012°15'0 0.0
2018-Jul-11 02:48N 45°27' E 012°15'0 0.0
2018-Jul-11 02:30N 45°27' E 012°15'0 0.0
2018-Jul-11 01:48N 45°27' E 012°15'0 0.0
2018-Jul-11 01:24N 45°27' E 012°15'0 0.0
2018-Jul-11 01:00N 45°27' E 012°15'0 0.0
2018-Jul-11 00:24N 45°27' E 012°15'0 0.0
2018-Jul-10 23:57N 45°27' E 012°15'0 0.0
2018-Jul-10 22:18N 45°27' E 012°15'0 0.0
2018-Jul-10 19:57N 45°27' E 012°15'0 0.0
2018-Jul-10 17:12N 45°27' E 012°15'0 0.0
2018-Jul-10 16:36N 45°27' E 012°15'0 0.1
2018-Jul-10 16:30N 45°27' E 012°15'0 0.0
2018-Jul-10 15:51N 45°27' E 012°15'0 0.0
2018-Jul-10 15:30N 45°27' E 012°15'0 0.0
2018-Jul-10 14:15N 45°27' E 012°15'0 0.0
2018-Jul-10 13:45N 45°27' E 012°15'0 0.0
2018-Jul-10 13:30N 45°27' E 012°15'0 0.0
2018-Jul-10 10:00N 45°27' E 012°15'0 0.0
2018-Jul-10 09:15N 45°27' E 012°15'0 0.0
2018-Jul-10 08:54N 45°27' E 012°15'0 0.0
2018-Jul-10 08:24N 45°27' E 012°15'0 0.0
2018-Jul-10 08:00N 45°27' E 012°15'0 0.0
2018-Jul-10 07:30N 45°27' E 012°15'  

Dump ship's entire track history